Time;durP1;ratioP1;P1;durP2;ratioP2;P2;SDS_P1;SDS_P2;PMS_P1;PMS_P2;Temp;Humidity;BMP_temperature;BMP_pressure;BME280_temperature;BME280_humidity;BME280_pressure;Samples;Min_cycle;Max_cycle;Signal;HPM_P1;HPM_P2
2022/07/01 00:01:23;;;;;;;11.67;10.50;;;;;;;22.20;79.67;100443.72;4991712;28;20132;-72
2022/07/01 00:04:04;;;;;;;11.75;10.65;;;;;;;22.17;79.32;100445.88;5019291;28;21008;-71
2022/07/01 00:06:52;;;;;;;14.10;12.02;;;;;;;22.15;81.17;100442.53;5017827;28;20037;-71
2022/07/01 00:09:23;;;;;;;13.45;11.32;;;;;;;22.12;80.37;100449.09;4997482;28;20049;-73
2022/07/01 00:12:00;;;;;;;13.05;11.85;;;;;;;22.10;81.59;100440.31;4987293;28;20707;-73
2022/07/01 00:14:41;;;;;;;13.43;12.10;;;;;;;22.05;81.80;100442.69;5021683;28;20060;-72
2022/07/01 00:17:23;;;;;;;17.27;11.98;;;;;;;22.00;81.63;100439.66;4970021;28;20140;-71
2022/07/01 00:20:00;;;;;;;19.40;12.05;;;;;;;21.97;81.58;100432.81;4997270;28;20060;-72
2022/07/01 00:22:30;;;;;;;13.57;12.27;;;;;;;21.95;82.03;100431.31;4982788;28;20130;-74
2022/07/01 00:25:11;;;;;;;12.95;11.73;;;;;;;21.94;83.09;100443.03;5003550;28;20602;-72
2022/07/01 00:27:49;;;;;;;13.63;12.32;;;;;;;21.91;83.07;100436.16;5001767;28;20104;-71
2022/07/01 00:30:23;;;;;;;15.65;14.05;;;;;;;21.89;84.31;100437.34;5015463;28;20127;-72
2022/07/01 00:33:04;;;;;;;13.13;11.93;;;;;;;21.84;84.24;100423.59;5001898;28;20045;-71
2022/07/01 00:35:47;;;;;;;15.75;12.82;;;;;;;21.82;83.91;100423.75;4977921;28;20056;-73
2022/07/01 00:38:29;;;;;;;15.52;13.00;;;;;;;21.78;84.28;100418.91;5032145;28;20049;-72
2022/07/01 00:41:06;;;;;;;15.55;14.05;;;;;;;21.75;85.81;100417.44;4989217;28;20045;-73
2022/07/01 00:43:38;;;;;;;15.20;13.63;;;;;;;21.70;85.77;100412.56;4990588;28;20115;-74
2022/07/01 00:46:32;;;;;;;14.68;13.27;;;;;;;21.69;85.80;100404.69;5016505;28;20066;-73
2022/07/01 00:49:01;;;;;;;14.38;13.07;;;;;;;21.69;86.43;100399.31;4971441;28;20049;-76
2022/07/01 00:51:28;;;;;;;15.57;13.93;;;;;;;21.66;86.50;100397.84;5024068;28;20067;-73
2022/07/01 00:53:58;;;;;;;16.58;14.18;;;;;;;21.63;85.87;100400.84;5019029;28;20488;-74
2022/07/01 00:56:25;;;;;;;14.88;13.25;;;;;;;21.62;85.73;100409.06;4980240;28;20053;-72
2022/07/01 00:58:55;;;;;;;16.27;13.32;;;;;;;21.58;86.36;100405.88;4987124;28;20130;-73
2022/07/01 01:01:22;;;;;;;18.52;13.98;;;;;;;21.56;86.75;100402.50;5003321;28;20051;-74
2022/07/01 01:03:50;;;;;;;16.35;14.75;;;;;;;21.51;87.08;100410.19;5020940;28;20113;-74
2022/07/01 01:06:18;;;;;;;14.43;13.13;;;;;;;21.48;87.03;100408.72;4982726;28;20053;-74
2022/07/01 01:08:46;;;;;;;15.77;14.13;;;;;;;21.46;87.08;100416.06;4981410;28;20111;-73
2022/07/01 01:11:15;;;;;;;16.25;14.55;;;;;;;21.45;87.45;100405.53;5034248;28;20052;-76
2022/07/01 01:13:42;;;;;;;19.25;15.02;;;;;;;21.43;87.72;100408.38;4998288;28;20678;-73
2022/07/01 01:16:20;;;;;;;19.45;15.07;;;;;;;21.43;88.40;100407.50;5019599;28;20253;-74
2022/07/01 01:18:48;;;;;;;16.52;14.63;;;;;;;21.40;89.25;100407.88;5003725;28;20119;-75
2022/07/01 01:21:19;;;;;;;17.00;15.23;;;;;;;21.37;88.94;100410.84;4986635;28;20106;-74
2022/07/01 01:23:46;;;;;;;18.42;16.02;;;;;;;21.36;89.03;100415.38;5006980;28;20529;-73
2022/07/01 01:26:25;;;;;;;19.80;16.08;;;;;;;21.38;89.78;100412.53;5016646;28;20120;-73
2022/07/01 01:29:43;;;;;;;16.65;14.82;;;;;;;21.34;89.52;100411.19;5002967;28;20079;-75
2022/07/01 01:36:03;;;;;;;17.60;15.90;;;;;;;21.35;90.18;100405.69;5014542;28;20125;-73
2022/07/01 01:38:47;;;;;;;17.30;15.50;;;;;;;21.34;90.65;100403.16;4996267;28;20076;-74
2022/07/01 01:41:19;;;;;;;18.90;17.00;;;;;;;21.35;90.66;100400.31;5009973;28;20137;-73
2022/07/01 01:43:51;;;;;;;18.05;16.15;;;;;;;21.34;91.42;100395.13;5006448;28;20192;-74
2022/07/01 01:46:30;;;;;;;19.67;17.65;;;;;;;21.34;92.77;100395.13;4989141;28;20104;-74
2022/07/01 01:49:12;;;;;;;25.52;17.52;;;;;;;21.30;92.17;100410.66;4999964;28;20033;-75
2022/07/01 01:51:52;;;;;;;19.48;17.48;;;;;;;21.29;92.14;100398.25;5015873;28;20041;-74
2022/07/01 01:54:29;;;;;;;21.33;17.90;;;;;;;21.29;92.33;100392.06;5005164;28;20061;-74
2022/07/01 01:57:03;;;;;;;20.63;18.63;;;;;;;21.27;93.35;100378.84;5003590;28;20049;-74
2022/07/01 02:00:08;;;;;;;19.67;17.67;;;;;;;21.25;93.25;100378.16;5023172;28;20050;-73
2022/07/01 02:03:12;;;;;;;18.52;16.58;;;;;;;21.24;94.16;100371.16;5002242;28;22321;-75
2022/07/01 02:05:52;;;;;;;20.73;18.08;;;;;;;21.21;92.94;100372.34;4988596;28;20081;-75
2022/07/01 02:08:31;;;;;;;22.42;18.50;;;;;;;21.19;93.46;100366.28;5016738;28;20060;-74
2022/07/01 02:11:08;;;;;;;20.27;18.35;;;;;;;21.17;93.21;100362.97;5004469;28;20046;-74
2022/07/01 02:13:39;;;;;;;22.17;18.02;;;;;;;21.18;93.40;100361.09;5008043;28;20034;-71
2022/07/01 02:16:06;;;;;;;19.50;17.52;;;;;;;21.17;92.73;100364.78;4991763;28;20040;-72
2022/07/01 02:18:34;;;;;;;19.20;17.30;;;;;;;21.16;93.02;100371.13;5022361;28;20132;-70
2022/07/01 02:21:02;;;;;;;19.45;17.45;;;;;;;21.15;93.19;100375.66;5015729;28;20143;-72
2022/07/01 02:23:36;;;;;;;19.92;17.63;;;;;;;21.14;93.15;100373.97;5011102;28;20046;-73
2022/07/01 02:26:06;;;;;;;20.48;18.30;;;;;;;21.13;93.34;100372.31;4994438;28;20061;-70
2022/07/01 02:28:48;;;;;;;19.83;17.75;;;;;;;21.14;94.04;100379.34;4992410;28;20561;-71
2022/07/01 02:31:36;;;;;;;21.13;18.90;;;;;;;21.13;94.33;100380.34;5018358;28;20051;-72
2022/07/01 02:34:45;;;;;;;22.08;20.02;;;;;;;21.14;94.40;100379.34;4988163;28;20806;-73
2022/07/01 02:40:17;;;;;;;22.63;19.02;;;;;;;21.15;95.21;100374.81;4996401;28;20042;-71
2022/07/01 02:43:06;;;;;;;20.10;18.00;;;;;;;21.15;95.67;100380.16;4991869;28;20076;-72
2022/07/01 02:45:39;;;;;;;20.25;18.15;;;;;;;21.14;95.87;100383.84;4980841;28;20464;-72
2022/07/01 02:48:15;;;;;;;22.92;20.65;;;;;;;21.16;96.56;100392.53;5013134;28;20701;-72
2022/07/01 02:50:58;;;;;;;21.45;19.35;;;;;;;21.18;96.63;100390.56;5004698;28;20058;-71
2022/07/01 02:53:53;;;;;;;21.27;19.08;;;;;;;21.15;96.17;100394.38;4994316;28;20041;-73
2022/07/01 02:56:41;;;;;;;22.48;20.33;;;;;;;21.15;96.24;100394.38;5001439;28;20045;-70
2022/07/01 02:59:12;;;;;;;24.45;19.77;;;;;;;21.16;95.99;100395.22;4984450;28;20059;-71
2022/07/01 03:01:39;;;;;;;23.02;20.63;;;;;;;21.16;96.72;100401.44;5026454;28;20156;-73
2022/07/01 03:04:06;;;;;;;24.20;19.98;;;;;;;21.16;96.80;100404.13;5007326;28;20188;-73
2022/07/01 03:06:33;;;;;;;23.25;20.88;;;;;;;21.16;97.42;100401.44;4982736;28;20054;-71
2022/07/01 03:09:01;;;;;;;22.38;20.05;;;;;;;21.15;97.35;100401.59;5010607;28;20063;-75
2022/07/01 03:11:28;;;;;;;21.52;19.33;;;;;;;21.15;97.62;100413.13;4982789;28;20088;-72
2022/07/01 03:13:56;;;;;;;22.60;20.30;;;;;;;21.16;97.14;100413.97;5003791;28;20524;-73
2022/07/01 03:16:23;;;;;;;22.35;20.13;;;;;;;21.17;97.37;100403.09;5005380;28;20048;-73
2022/07/01 03:18:51;;;;;;;23.30;20.75;;;;;;;21.21;97.83;100406.31;5008961;28;20056;-72
2022/07/01 03:21:19;;;;;;;22.52;20.35;;;;;;;21.22;97.82;100408.81;5011549;28;20061;-74
2022/07/01 03:23:46;;;;;;;23.55;21.20;;;;;;;21.26;97.39;100409.31;4998852;28;20043;-74
2022/07/01 03:26:14;;;;;;;24.23;21.92;;;;;;;21.28;96.62;100401.94;4992808;28;20146;-73
2022/07/01 03:28:42;;;;;;;24.40;20.85;;;;;;;21.32;96.56;100408.69;5017342;28;20190;-73
2022/07/01 03:31:09;;;;;;;24.65;22.17;;;;;;;21.35;96.97;100397.66;5000976;28;20113;-73
2022/07/01 03:33:37;;;;;;;21.35;19.17;;;;;;;21.39;96.13;100401.66;4961904;28;20052;-74
2022/07/01 03:36:04;;;;;;;27.52;21.15;;;;;;;21.44;96.22;100395.81;4991336;28;20057;-75
2022/07/01 03:38:32;;;;;;;26.52;22.92;;;;;;;21.48;96.22;100395.31;5015141;28;20054;-73
2022/07/01 03:40:59;;;;;;;23.15;20.85;;;;;;;21.52;95.95;100403.84;5004810;28;20057;-74
2022/07/01 03:43:26;;;;;;;26.92;22.23;;;;;;;21.56;95.59;100404.34;5000277;28;20471;-73
2022/07/01 03:45:54;;;;;;;28.67;20.13;;;;;;;21.60;95.16;100405.69;5023640;28;20071;-73
2022/07/01 03:48:21;;;;;;;25.25;21.98;;;;;;;21.62;95.70;100398.34;5005442;28;20443;-75
2022/07/01 03:50:48;;;;;;;26.38;20.98;;;;;;;21.64;95.70;100396.31;5015220;28;20664;-73
2022/07/01 03:56:01;;;;;;;27.45;22.38;;;;;;;21.68;96.06;100397.66;5026860;28;20068;-73
2022/07/01 03:58:29;;;;;;;25.02;22.55;;;;;;;21.67;95.68;100404.03;5001246;28;20180;-75
2022/07/01 04:00:56;;;;;;;22.92;20.52;;;;;;;21.67;95.27;100402.19;4984465;28;20046;-75
2022/07/01 04:03:23;;;;;;;23.02;20.73;;;;;;;21.72;94.97;100394.47;5005871;28;20052;-74
2022/07/01 04:05:51;;;;;;;26.27;23.58;;;;;;;21.76;95.39;100394.97;5001930;28;20140;-73
2022/07/01 04:08:19;;;;;;;24.83;21.23;;;;;;;21.78;95.34;100401.00;5003633;28;20072;-74
2022/07/01 04:10:46;;;;;;;23.67;21.30;;;;;;;21.84;95.20;100412.88;5005438;28;21205;-74
2022/07/01 04:13:13;;;;;;;23.17;20.88;;;;;;;21.89;94.88;100410.53;4992068;28;20443;-74
2022/07/01 04:15:59;;;;;;;25.67;21.75;;;;;;;21.96;94.07;100406.16;5019172;28;20112;-75
2022/07/01 04:18:27;;;;;;;24.33;21.77;;;;;;;22.02;93.89;100401.97;5003263;28;20055;-74
2022/07/01 04:23:41;;;;;;;25.05;21.83;;;;;;;22.17;93.70;100403.00;5011989;28;20044;-73
2022/07/01 04:26:09;;;;;;;23.45;20.02;;;;;;;22.22;93.59;100406.81;5010621;28;20057;-72
2022/07/01 04:28:57;;;;;;;23.67;20.92;;;;;;;22.29;92.90;100411.50;5013149;28;20060;-75
2022/07/01 04:31:24;;;;;;;28.73;22.17;;;;;;;22.38;93.12;100410.47;5010680;28;20045;-74
2022/07/01 04:33:51;;;;;;;26.27;22.50;;;;;;;22.39;93.29;100409.47;4986254;28;20080;-75
2022/07/01 04:36:19;;;;;;;22.58;20.38;;;;;;;22.46;93.17;100410.44;4997225;28;20503;-76
2022/07/01 04:38:46;;;;;;;24.27;21.73;;;;;;;22.50;92.87;100415.28;5016081;28;20113;-75
2022/07/01 04:43:59;;;;;;;24.98;21.40;;;;;;;22.62;92.12;100404.19;5029941;28;20116;-75
2022/07/01 04:46:27;;;;;;;24.02;21.48;;;;;;;22.68;91.30;100406.16;5012603;28;20890;-75
2022/07/01 04:48:54;;;;;;;26.35;23.02;;;;;;;22.77;91.21;100409.66;5024690;28;20535;-74
2022/07/01 04:51:22;;;;;;;26.00;23.45;;;;;;;22.83;91.02;100407.13;5027171;28;20057;-75
2022/07/01 04:53:49;;;;;;;27.77;23.02;;;;;;;22.87;90.32;100421.84;5013330;28;20079;-74
2022/07/01 04:56:17;;;;;;;24.05;21.55;;;;;;;22.93;90.33;100410.47;4997358;28;20037;-74
2022/07/01 04:58:44;;;;;;;26.05;22.42;;;;;;;23.01;89.73;100406.91;4990476;28;20208;-75
2022/07/01 05:01:14;;;;;;;26.10;23.50;;;;;;;23.05;89.52;100412.72;5006225;28;20071;-75
2022/07/01 05:03:41;;;;;;;22.80;20.50;;;;;;;23.16;89.17;100410.50;4992682;28;20045;-75
2022/07/01 05:06:08;;;;;;;24.08;21.55;;;;;;;23.25;88.75;100404.06;4983521;28;20141;-76
2022/07/01 05:08:36;;;;;;;28.08;21.13;;;;;;;23.33;88.03;100411.22;5010620;28;20076;-76
2022/07/01 05:11:03;;;;;;;31.05;21.85;;;;;;;23.42;87.63;100407.47;5025461;28;20054;-75
2022/07/01 05:13:31;;;;;;;24.55;21.55;;;;;;;23.49;87.00;100404.88;5012756;28;20049;-74
2022/07/01 05:15:59;;;;;;;24.52;21.73;;;;;;;23.54;86.75;100404.34;5006819;28;20099;-75
2022/07/01 05:23:59;;;;;;;23.30;19.67;;;;;;;23.82;85.72;100416.25;5010114;28;20053;-75
2022/07/01 05:26:26;;;;;;;24.60;22.20;;;;;;;23.85;85.26;100413.19;5019738;28;20077;-76
2022/07/01 05:28:53;;;;;;;23.80;21.42;;;;;;;23.92;84.94;100419.50;5019420;28;20132;-75
2022/07/01 05:31:21;;;;;;;25.48;20.60;;;;;;;23.99;84.50;100422.28;5003089;28;20214;-73
2022/07/01 05:33:49;;;;;;;23.17;20.63;;;;;;;24.16;83.94;100418.44;5012271;28;20424;-74
2022/07/01 05:36:16;;;;;;;23.83;20.42;;;;;;;24.39;82.45;100423.75;5004606;28;20143;-74
2022/07/01 05:38:43;;;;;;;22.55;20.13;;;;;;;24.54;81.58;100422.91;4992422;28;20054;-76
2022/07/01 05:41:10;;;;;;;25.02;21.30;;;;;;;24.70;80.31;100434.34;4998498;28;20072;-75
2022/07/01 05:43:37;;;;;;;22.00;19.70;;;;;;;24.79;79.46;100437.75;4993034;28;20140;-76
2022/07/01 05:46:05;;;;;;;23.27;19.80;;;;;;;24.93;79.15;100463.00;4982018;28;20053;-75
2022/07/01 05:48:32;;;;;;;22.50;20.33;;;;;;;25.02;78.47;100478.03;5005094;28;20053;-76
2022/07/01 05:51:00;;;;;;;21.83;18.75;;;;;;;25.07;78.74;100485.53;4987933;28;20065;-75
2022/07/01 05:53:27;;;;;;;22.55;20.13;;;;;;;24.94;78.24;100489.72;4998875;28;20105;-75
2022/07/01 05:55:54;;;;;;;25.00;21.08;;;;;;;24.64;80.41;100485.41;5004166;28;20132;-76
2022/07/01 05:58:21;;;;;;;28.20;20.80;;;;;;;24.57;80.62;100490.69;4991710;28;20412;-75
2022/07/01 06:00:49;;;;;;;29.35;21.77;;;;;;;24.60;80.84;100490.31;5008418;28;20072;-75
2022/07/01 06:03:16;;;;;;;28.77;20.73;;;;;;;24.64;80.21;100488.09;5001604;28;20079;-75
2022/07/01 06:05:43;;;;;;;27.05;20.15;;;;;;;24.55;80.22;100486.50;4995496;28;20052;-75
2022/07/01 06:08:11;;;;;;;21.63;19.35;;;;;;;24.69;80.17;100485.69;4980248;28;20052;-75
2022/07/01 06:10:38;;;;;;;24.83;18.73;;;;;;;24.81;79.88;100488.72;5003397;28;20071;-74
2022/07/01 06:13:06;;;;;;;23.90;18.83;;;;;;;24.79;79.18;100488.09;5003129;28;20053;-76
2022/07/01 06:15:34;;;;;;;27.10;19.02;;;;;;;24.86;79.12;100489.84;5008738;28;20156;-74
2022/07/01 06:18:02;;;;;;;34.72;21.73;;;;;;;24.81;79.20;100481.50;5024002;28;20109;-75
2022/07/01 06:20:29;;;;;;;20.48;18.38;;;;;;;24.88;78.98;100492.34;5019349;28;20069;-75
2022/07/01 06:22:58;;;;;;;22.08;19.77;;;;;;;25.07;78.21;100502.53;4998646;28;20087;-75
2022/07/01 06:25:25;;;;;;;22.73;19.80;;;;;;;25.06;78.08;100494.66;5029270;28;20477;-75
2022/07/01 06:27:52;;;;;;;25.92;19.83;;;;;;;25.32;77.11;100502.25;5027752;28;20159;-74
2022/07/01 06:30:19;;;;;;;21.40;18.90;;;;;;;25.33;76.06;100499.38;5006634;28;20049;-74
2022/07/01 06:32:47;;;;;;;21.88;19.40;;;;;;;25.38;75.35;100499.63;4993789;28;20466;-73
2022/07/01 06:35:14;;;;;;;26.65;19.38;;;;;;;25.47;75.19;100501.19;5004657;28;20132;-74
2022/07/01 06:37:41;;;;;;;21.63;18.83;;;;;;;25.59;74.77;100506.09;5027333;28;20044;-74
2022/07/01 06:40:12;;;;;;;21.88;18.40;;;;;;;25.61;73.88;100506.72;5029419;28;20062;-76
2022/07/01 06:42:40;;;;;;;26.15;18.17;;;;;;;25.56;74.21;100501.91;4996918;28;20045;-74
2022/07/01 06:45:07;;;;;;;21.90;18.52;;;;;;;25.55;74.39;100502.09;4974404;28;20254;-74
2022/07/01 06:47:36;;;;;;;21.67;19.23;;;;;;;25.60;74.12;100507.75;5032588;28;20053;-75
2022/07/01 06:50:04;;;;;;;40.10;21.17;;;;;;;25.54;74.17;100511.22;5027675;28;20685;-74
2022/07/01 06:52:35;;;;;;;24.38;19.10;;;;;;;25.55;74.14;100510.19;4989112;28;20049;-75
2022/07/01 06:55:02;;;;;;;23.05;19.67;;;;;;;25.50;74.33;100513.47;5025543;28;20092;-75
2022/07/01 06:57:29;;;;;;;22.25;19.75;;;;;;;25.44;74.33;100512.38;5015330;28;20059;-74
2022/07/01 06:59:56;;;;;;;23.77;20.85;;;;;;;25.38;74.67;100504.19;4983056;28;20046;-76
2022/07/01 07:02:24;;;;;;;21.58;19.30;;;;;;;25.39;74.81;100506.69;4989282;28;20116;-74
2022/07/01 07:04:57;;;;;;;22.63;20.23;;;;;;;25.52;74.26;100509.53;5016979;28;20060;-74
2022/07/01 07:07:28;;;;;;;20.65;18.40;;;;;;;25.74;73.46;100501.47;5016885;28;20078;-75
2022/07/01 07:09:56;;;;;;;23.75;20.20;;;;;;;25.83;72.80;100502.19;4996727;28;20487;-78
2022/07/01 07:12:24;;;;;;;25.02;20.30;;;;;;;25.91;72.47;100500.22;5009220;28;20076;-75
2022/07/01 07:14:52;;;;;;;20.73;18.50;;;;;;;25.93;71.77;100492.75;4991903;28;20080;-75
2022/07/01 07:17:22;;;;;;;22.15;19.95;;;;;;;26.19;70.23;100486.75;4987755;28;20523;-78
2022/07/01 07:19:50;;;;;;;19.45;17.45;;;;;;;26.32;69.30;100488.72;4995481;28;20144;-76
2022/07/01 07:22:17;;;;;;;21.20;19.02;;;;;;;26.46;68.42;100484.28;5016326;28;20049;-75
2022/07/01 07:24:44;;;;;;;25.10;20.25;;;;;;;26.43;67.78;100481.94;5017807;28;20465;-75
2022/07/01 07:27:12;;;;;;;20.83;17.83;;;;;;;26.38;68.29;100487.09;5016997;28;20089;-74
2022/07/01 07:29:39;;;;;;;18.00;16.10;;;;;;;26.49;66.26;100487.41;4986649;28;20171;-75
2022/07/01 07:35:19;;;;;;;22.38;20.00;;;;;;;26.05;67.86;100494.94;4992080;28;20076;-75
2022/07/01 07:38:01;;;;;;;22.92;19.10;;;;;;;25.94;68.67;100497.13;4978346;28;20450;-75
2022/07/01 07:40:38;;;;;;;19.95;17.85;;;;;;;26.13;67.83;100492.94;4985297;28;20045;-75
2022/07/01 07:43:07;;;;;;;19.25;17.27;;;;;;;26.33;67.73;100482.28;4999335;28;20045;-76
2022/07/01 07:45:36;;;;;;;18.63;16.58;;;;;;;26.39;65.80;100481.50;5018467;28;20048;-74
2022/07/01 07:48:06;;;;;;;15.57;13.85;;;;;;;26.33;63.27;100484.97;5009298;28;20546;-74
2022/07/01 07:50:34;;;;;;;17.63;13.45;;;;;;;26.36;62.77;100483.78;4991035;28;20106;-70
2022/07/01 07:53:01;;;;;;;15.13;13.60;;;;;;;26.51;62.58;100484.50;4996497;28;20045;-72
2022/07/01 07:55:28;;;;;;;20.50;14.82;;;;;;;26.57;62.80;100486.44;5015991;28;20163;-72
2022/07/01 07:57:55;;;;;;;19.15;14.50;;;;;;;26.49;63.87;100481.19;4996204;28;20064;-73
2022/07/01 08:00:23;;;;;;;18.80;15.40;;;;;;;26.62;63.55;100478.56;5014925;28;20496;-73
2022/07/01 08:02:50;;;;;;;17.02;14.30;;;;;;;26.82;63.34;100480.53;4995627;28;20045;-74
2022/07/01 08:05:18;;;;;;;20.90;14.88;;;;;;;26.99;62.17;100476.47;5007190;28;20056;-73
2022/07/01 08:07:45;;;;;;;16.30;13.38;;;;;;;27.16;61.49;100477.81;4995984;28;20060;-72
2022/07/01 08:10:13;;;;;;;20.25;13.65;;;;;;;27.16;59.53;100477.81;4990912;28;20061;-72
2022/07/01 08:12:40;;;;;;;14.90;12.93;;;;;;;27.11;60.16;100480.31;5033460;28;20538;-71
2022/07/01 08:15:07;;;;;;;17.23;12.63;;;;;;;27.18;59.80;100480.31;5015750;28;20053;-72
2022/07/01 08:17:35;;;;;;;18.05;13.48;;;;;;;27.26;59.75;100477.44;5012231;28;20041;-72
2022/07/01 08:20:02;;;;;;;15.85;13.35;;;;;;;27.24;59.58;100484.91;5013219;28;20061;-72
2022/07/01 08:22:30;;;;;;;13.10;11.50;;;;;;;27.19;59.64;100492.78;5008069;28;20531;-72
2022/07/01 08:24:57;;;;;;;14.27;12.10;;;;;;;27.19;58.72;100490.91;4985551;28;20862;-72
2022/07/01 08:27:24;;;;;;;13.48;12.07;;;;;;;27.13;58.83;100493.59;5004132;28;20076;-72
2022/07/01 08:29:52;;;;;;;15.30;11.65;;;;;;;27.26;57.92;100490.94;5029060;28;20061;-72
2022/07/01 08:32:19;;;;;;;19.63;11.18;;;;;;;27.31;57.47;100487.66;5023241;28;20060;-71
2022/07/01 08:34:46;;;;;;;13.15;10.50;;;;;;;27.47;56.75;100490.00;4997029;28;20057;-72
2022/07/01 08:37:13;;;;;;;16.58;11.55;;;;;;;27.47;57.03;100495.41;5037981;28;20050;-72
2022/07/01 08:39:40;;;;;;;15.93;10.30;;;;;;;27.56;56.50;100499.56;5028720;28;20064;-73
2022/07/01 08:42:08;;;;;;;20.63;10.48;;;;;;;27.56;56.09;100498.72;5009243;28;20049;-72
2022/07/01 08:44:35;;;;;;;12.20;11.10;;;;;;;27.58;56.23;100497.50;5000322;28;20049;-72
2022/07/01 08:47:03;;;;;;;13.02;11.35;;;;;;;27.61;56.59;100497.09;5009103;28;20067;-72
2022/07/01 08:49:31;;;;;;;12.93;10.20;;;;;;;28.04;55.93;100491.31;4990945;28;20100;-71
2022/07/01 08:51:58;;;;;;;12.32;10.40;;;;;;;28.38;55.26;100493.00;5023464;28;20727;-71
2022/07/01 08:54:25;;;;;;;12.75;11.43;;;;;;;28.45;53.72;100501.94;5012076;28;20062;-72
2022/07/01 08:56:53;;;;;;;14.95;11.25;;;;;;;28.27;54.37;100497.13;5017502;28;20037;-72
2022/07/01 08:59:25;;;;;;;13.55;11.63;;;;;;;28.33;54.00;100486.53;5009309;28;20057;-72
2022/07/01 09:02:01;;;;;;;16.95;11.75;;;;;;;28.34;54.07;100490.91;5011339;28;20061;-72
2022/07/01 09:04:29;;;;;;;12.88;11.48;;;;;;;28.16;54.53;100495.06;5026241;28;20093;-73
2022/07/01 09:07:03;;;;;;;12.75;11.38;;;;;;;28.14;54.75;100496.31;5018026;28;20046;-71
2022/07/01 09:09:35;;;;;;;17.98;10.88;;;;;;;28.20;54.90;100498.22;5020690;28;20132;-71
2022/07/01 09:12:02;;;;;;;18.27;11.88;;;;;;;28.22;54.47;100515.06;5029750;28;20105;-72
2022/07/01 09:14:32;;;;;;;15.20;11.05;;;;;;;27.74;55.60;100504.44;5004519;28;20084;-72
2022/07/01 09:17:01;;;;;;;13.13;11.73;;;;;;;27.69;55.88;100515.84;5006051;28;20057;-73
2022/07/01 09:19:31;;;;;;;15.93;11.68;;;;;;;27.67;56.30;100509.78;5011252;28;20061;-72
2022/07/01 09:22:00;;;;;;;14.23;11.48;;;;;;;27.56;56.42;100518.50;5008521;28;20050;-73
2022/07/01 09:24:37;;;;;;;13.60;10.43;;;;;;;27.26;56.71;100518.81;5009763;28;20187;-72
2022/07/01 09:27:13;;;;;;;13.65;12.25;;;;;;;26.89;57.87;100530.88;4992887;28;20069;-73
2022/07/01 09:29:41;;;;;;;;;;;;;;;26.49;58.49;100536.00;5010467;28;20055;-72
2022/07/01 09:32:11;;;;;;;13.15;10.93;;;;;;;26.01;59.93;100543.03;5009262;28;19925;-72
2022/07/01 09:34:45;;;;;;;20.05;7.47;;;;;;;25.47;63.06;100565.03;5011861;28;20065;-72
2022/07/01 09:37:14;;;;;;;32.80;4.78;;;;;;;24.54;66.82;100570.94;4988495;28;20603;-73
2022/07/01 09:39:50;;;;;;;15.35;3.70;;;;;;;24.17;68.38;100577.94;4990390;28;20050;-73
2022/07/01 09:42:19;;;;;;;12.82;3.20;;;;;;;23.77;69.71;100595.19;4989021;28;20133;-71
2022/07/01 09:45:04;;;;;;;29.85;3.05;;;;;;;23.95;68.97;100595.75;5021732;28;20061;-72
2022/07/01 09:47:34;;;;;;;8.85;2.83;;;;;;;23.79;69.48;100607.47;5031505;28;20073;-71
2022/07/01 09:50:03;;;;;;;21.27;2.47;;;;;;;22.91;71.58;100640.63;4978637;28;20045;-71
2022/07/01 09:52:30;;;;;;;53.40;3.53;;;;;;;22.17;75.20;100641.63;4988136;28;20057;-71
2022/07/01 09:55:05;;;;;;;12.73;2.20;;;;;;;22.30;74.16;100665.28;5004347;28;20046;-70
2022/07/01 09:57:32;;;;;;;24.73;2.72;;;;;;;22.24;74.29;100662.25;4984663;28;20045;-70
2022/07/01 09:59:59;;;;;;;21.02;1.60;;;;;;;22.14;74.85;100666.06;5009379;28;20064;-71
2022/07/01 10:02:30;;;;;;;7.95;1.58;;;;;;;21.83;75.89;100669.31;5002624;28;20073;-71
2022/07/01 10:05:17;;;;;;;17.13;1.70;;;;;;;21.35;77.50;100669.94;5003676;28;20419;-71
2022/07/01 10:08:09;;;;;;;3.75;1.35;;;;;;;21.23;78.17;100683.56;4988110;28;20042;-71
2022/07/01 10:11:13;;;;;;;5.88;1.48;;;;;;;20.92;78.97;100685.03;4998303;28;20052;-72
2022/07/01 10:13:41;;;;;;;5.68;1.52;;;;;;;20.83;79.96;100688.63;5011278;28;20685;-72
2022/07/01 10:16:10;;;;;;;15.15;1.75;;;;;;;20.62;80.87;100672.91;5027206;28;20042;-72
2022/07/01 10:18:37;;;;;;;12.18;1.95;;;;;;;20.55;81.37;100690.56;5022247;28;20045;-72
2022/07/01 10:21:05;;;;;;;9.27;1.42;;;;;;;20.30;83.37;100689.44;5007088;28;20037;-72
2022/07/01 10:23:41;;;;;;;3.92;1.50;;;;;;;20.36;83.03;100676.34;5004610;28;20042;-72
2022/07/01 10:26:10;;;;;;;5.80;1.48;;;;;;;20.34;82.75;100675.63;4980767;28;20050;-71
2022/07/01 10:28:41;;;;;;;9.85;1.52;;;;;;;20.16;84.00;100680.97;5001458;28;20046;-70
2022/07/01 10:31:15;;;;;;;6.10;1.40;;;;;;;20.17;84.17;100693.34;4994577;28;20619;-71
2022/07/01 10:33:56;;;;;;;3.63;1.50;;;;;;;20.02;85.08;100694.00;4985494;28;20042;-70
2022/07/01 10:36:32;;;;;;;5.40;1.98;;;;;;;19.96;85.12;100703.47;5013529;28;20586;-71
2022/07/01 10:39:09;;;;;;;;;;;;;;;19.81;86.42;100704.94;5014998;28;20051;-71
2022/07/01 10:41:45;;;;;;;2.25;1.77;;;;;;;19.75;86.90;100710.88;4994995;28;19922;-70
2022/07/01 10:44:14;;;;;;;6.07;2.03;;;;;;;19.54;88.35;100705.72;5002914;28;20146;-72
2022/07/01 10:46:58;;;;;;;5.85;2.20;;;;;;;19.57;88.87;100710.78;4999994;28;20071;-72
2022/07/01 10:49:41;;;;;;;6.68;1.95;;;;;;;19.53;89.13;100694.19;4988635;28;20056;-71
2022/07/01 10:52:15;;;;;;;3.28;2.00;;;;;;;19.52;89.19;100713.03;4990068;28;20068;-71
2022/07/01 10:54:45;;;;;;;7.43;2.05;;;;;;;19.47;89.69;100745.53;4991911;28;20044;-71
2022/07/01 10:57:15;;;;;;;5.18;1.70;;;;;;;19.27;91.29;100733.19;5009673;28;20064;-72
2022/07/01 10:59:43;;;;;;;4.85;2.40;;;;;;;19.28;91.72;100729.56;4997946;28;20073;-72
2022/07/01 11:02:16;;;;;;;8.13;1.50;;;;;;;19.09;91.72;100736.63;4986039;28;20051;-72
2022/07/01 11:04:50;;;;;;;4.00;1.27;;;;;;;18.97;91.56;100745.75;4995659;28;20130;-73
2022/07/01 11:07:17;;;;;;;2.42;1.08;;;;;;;18.77;92.72;100752.06;4984345;28;20054;-72
2022/07/01 11:09:45;;;;;;;4.50;1.63;;;;;;;18.70;92.79;100733.97;5000770;28;20216;-73
2022/07/01 11:12:16;;;;;;;2.47;1.02;;;;;;;18.71;92.80;100740.13;4990523;28;20049;-72
2022/07/01 11:14:44;;;;;;;18.67;1.50;;;;;;;18.74;93.23;100760.38;4984555;28;20073;-73
2022/07/01 11:17:13;;;;;;;7.20;0.88;;;;;;;18.64;93.41;100762.97;4997778;28;20054;-72
2022/07/01 11:19:47;;;;;;;8.23;1.10;;;;;;;18.35;95.25;100768.28;4995038;28;20480;-73
2022/07/01 11:22:34;;;;;;;2.38;0.80;;;;;;;18.36;95.66;100746.78;4998263;28;20434;-73
2022/07/01 11:25:13;;;;;;;3.53;0.70;;;;;;;18.37;95.50;100723.66;4979976;28;20049;-73
2022/07/01 11:27:45;;;;;;;17.00;1.83;;;;;;;18.40;95.35;100712.72;5004907;28;20057;-73
2022/07/01 11:30:14;;;;;;;2.97;0.88;;;;;;;18.16;97.08;100726.44;4982336;28;20080;-72
2022/07/01 11:32:57;;;;;;;5.20;1.20;;;;;;;18.24;97.01;100731.94;4978769;28;20064;-73
2022/07/01 11:41:06;;;;;;;3.75;0.80;;;;;;;18.03;98.69;100763.13;5012879;28;20049;-72
2022/07/01 11:43:36;;;;;;;4.55;0.90;;;;;;;18.05;98.29;100726.53;4990876;28;20156;-72
2022/07/01 11:46:05;;;;;;;5.63;1.10;;;;;;;18.18;97.95;100698.66;5020849;28;20045;-72
2022/07/01 11:48:53;;;;;;;3.38;0.93;;;;;;;18.46;96.75;100713.03;5002856;28;21377;-73
2022/07/01 11:51:26;;;;;;;9.27;1.30;;;;;;;18.83;97.51;100695.50;4988138;28;20065;-73
2022/07/01 11:53:54;;;;;;;4.05;1.08;;;;;;;19.00;97.11;100696.59;4986352;28;20049;-72
2022/07/01 11:56:31;;;;;;;1.38;0.90;;;;;;;19.20;97.32;100706.25;5020828;28;20104;-72
2022/07/01 11:58:59;;;;;;;3.20;1.00;;;;;;;18.86;98.34;100700.53;4990368;28;20056;-72
2022/07/01 12:01:32;;;;;;;3.00;1.00;;;;;;;18.80;99.33;100704.63;5000322;28;20144;-73